Terminal Aerodrome Forecast
Issued by NWS

Home | Current Version | Previous Version | Text Only | Print | Product List | Glossary On
Versions: 1 2 3 4 5 6 7 8 9 10 11 12 13 14
000
FTUS41 KCAR 220500
TAFPQI
TAF
KPQI 220536Z 2206/2306 14004KT P6SM OVC009
     FM220800 VRB03KT P6SM OVC008
     FM221100 20005KT 3SM -SHRA OVC008
     FM221400 22009KT P6SM -SHRA BKN015
     FM221500 23011KT P6SM BKN015
     FM221600 24013KT P6SM BKN025
     FM221800 25015KT P6SM BKN050
      AMD LTD TO CLD VIS AND WIND=

USA.gov is the U.S. government's official web portal to all federal, state and local government web resources and services.